Godthab, Greenland

3:03 PM WGT on December 06, 2016 (GMT -0300)
Fjeldvej | | Change Station

Elev 0 ft 64.17 °N, 51.73 °W | Updated 5 minutes ago

Mostly Cloudy
Mostly Cloudy
30.9 °F
Feels Like 31 °F
N
2.5
Wind Variable Wind from NNE
Gusts 6.2 mph

Today
High -- | Low -- °F
--% Chance of Precip.
Yesterday
High -- | Low -- °F
Precip. -- in
Pressure 29.18 in
Visibility 6.2 miles
Clouds Mostly Cloudy 18000 ft
Windchill 31 °F
Dew Point 27 °F
Humidity 84%
Rainfall in
Snow Depth Not available.
9:59 AM 2:36 PM
Waxing Crescent, 43% visible
METAR BGGH 061750Z VRB04KT 9999 BKN180 M00/M03 Q0988
Pressure 29.18 in
Visibility 6.2 miles
Clouds Mostly Cloudy 18000 ft
Windchill 31 °F
Dew Point 27 °F
Humidity 84%
Rainfall in
Snow Depth Not available.
9:59 AM 2:36 PM
Waxing Crescent, 43% visible
METAR BGGH 061750Z VRB04KT 9999 BKN180 M00/M03 Q0988

10-Day Weather Forecast

×

Almanac

Astronomy

Dec. 06, 2016 Rise Set
Actual Time
Civil Twilight
Nautical Twilight
Astronomical Twilight
Moon
Length of Visible Light
Length of Day
Tomorrow will be .
, % of the Moon is Illuminated

Today's Extremes

Country Highs Country Lows

Community

WunderPhotos

Upload Photos

1,955,986 photos uploaded!

WunderBlog® & News

Nearby

Air Quality

  Air Quality AQ Index Pollutant
Not available.

Snow Depth

Station Depth Elevation

Earthquake Activity

City Distance Mag. Time & Date
Minimum magnitude displayed is 2.5.

Coastal Water Temperatures

Place Temperature

Stations

Nearby Weather Stations

Station Location Temp. Windchill Dew Point Humidity Wind Precip. Elev Updated Type